Scammon Bay Airport Scammon Bay US
ICAO: PACM
IATA:
Category: Medium
Scheduled Services:

Elevation: 14 ft
TransAlt. 18000 ft.

Airport Communications:
ASOS:118.425
CTAF/UNICOM:123

PACM Zoom In..

Runways:

(A) RW 10 length 3000 ft width 75 ft
---- / hdg 101

(B) RW 28 length 3000 ft width 75 ft
---- / hdg 281

Location; PACM
Day. 29 / Time. 22.56 Zulu
* Altimeter: 30.36
* Temperature: -08° c. -17.6°f.
* Wind from: 000° Speed 00 kn.
Dewpoint: -16° c.
Visibility: 10 Statute Miles.
Clouds: Clear (automated report).

PACM 292256Z AUTO 00000KT 10SM CLR M08/M16 A3036 RMK AO2 SLP278 T10831161 FZRANO


Wind - Calm.

 
 
jpsmedia worldairports.se 2020   terms of use